Impacts TAF Board
For situational awareness. Not to be used for flight planning purposes.
IDs:

KDFW - Dallas-Ft Worth Intl, TX, US

Issued at 1120 UTC 21 Sep 2018
Updated at 1129 UTC 21 Sep 2018
Potential Impact None Slight Moderate High
Time1053Z 21/12Z 21/13Z 21/14Z 21/15Z 21/16Z 21/17Z 21/18Z 21/19Z 21/20Z 21/21Z 21/22Z 21/23Z 22/00Z>>
Type OBS PRVL PRVL PRVL PRVL PRVL PRVL PRVL PRVL PRVL PRVL PRVL PRVL
  [TEMP]  
PRVL
  [TEMP]  
VIS 10 >6 >6 >6 >6 >6 >6 >6 >6 >6 >6 >6 >6
  [4]  
>6
  [4]  
CIG 11 11 25 25 25 25 35 35 35 35 35 35 35
  [25]  
35
  [25]  
Cover OVC BKN BKN BKN BKN BKN BKN BKN BKN BKN BKN BKN BKN
  [BKN]  
BKN
  [BKN]  
FltCat MVFR MVFR MVFR MVFR MVFR MVFR VFR VFR VFR VFR VFR VFR VFR
  [MVFR]  
VFR
  [MVFR]  
WX -- VCSH -SHRA -SHRA -SHRA -SHRA -SHRA VCTS -SHRA VCTS -SHRA VCTS -SHRA VCTS -SHRA VCTS -SHRA VCTS -SHRA VCTS
  [TSRA]  
-SHRA VCTS
  [TSRA]  
WDir 190 160 170 170 170 170 160 160 160 160 160 160 160
[160]
160
[160]
WSpd 8 10 11 11 11 11 11 11 11 11 11 11 11
  [11]  
11
  [11]  
WGst -- -- -- -- -- -- -- -- -- -- -- -- --
  [--]  
--
  [--]  
Raw TAF
KDFW 211120Z 2112/2218 16010KT P6SM VCSH BKN011
  FM211300 17011KT P6SM -SHRA BKN025
  FM211700 16011KT P6SM -SHRA VCTS BKN035CB
  TEMPO 2123/2203 4SM TSRA BKN025CB
  FM220400 12008KT P6SM TSRA BKN025CB
  FM220800 03010KT P6SM SHRA OVC012
  FM221600 02012KT P6SM VCSH OVC020


Raw METAR
KDFW 211053Z 19008KT 10SM OVC011 25/23 A2992 RMK AO2 SLP121 T02500228
KDFW 210953Z 17010KT 10SM BKN013 BKN055 OVC080 25/22 A2992 RMK AO2 SLP121 BKN013 V SCT T02500222
KDFW 210930Z 17010KT 10SM BKN013 OVC075 25/22 A2992 RMK AO2 T02500222
KDFW 210853Z 16006KT 10SM SCT019 OVC080 24/22 A2991 RMK AO2 SLP120 60001 T02440217 56004

METAR Board
Radar Display
Forecast Discussion
For situational awareness. Not to be used for flight planning purposes.